Tiempo atmosférico en la estación meteorológica de Pozuelo De Tabara, Zamora (711 m.)



Fecha
DESCASC
Temp. máxima en grados centígrados (hora)
DESCASC
Temp. mínima en grados centígrados (hora)
DESCASC
Temp. media en grados centígrados
DESCASC
Racha de viento máxima en m/sg (hora)
DESCASC
Velocidad máxima media en intervalos de 10 minutos(hora)
DESCASC
Precipitaciones diarias en mm
DESCASC
Precipitaciones de 00:00 a 06:00 en mm
DESCASC
Precipitaciones de 06:00 a 12:00 en mm
DESCASC
Precipitaciones de 12:00 a 18:00 en mm
DESCASC
Precipitaciones de 18:00 a 24:00 en mm
DESCASC
19-04-2018 22.4 (16:40) 8 (07:40) 15.2 10.83 (13:40) 6.39 (14:00) 0 0 0 0 0
18-04-2018 24.1 (17:40) 5.6 (07:30) 14.9 8.06 (15:30) 5 (16:20) 0 0 0 0 0
17-04-2018 20.7 (18:00) 3.3 (07:30) 12 7.78 (14:30) 4.17 (17:40) 0 0 0 0 0
16-04-2018 15.2 (17:40) 3.3 (08:00) 9.2 9.72 (16:40) 7.22 (01:10) 0 0 0 0 0
15-04-2018 13.4 (15:00) 6.5 (00:00) 9.9 11.94 (16:10) 8.33 (15:10) 1.6 0.2 0.2 0 1.2
14-04-2018 15.2 (17:30) 3.4 (00:00) 9.3 9.44 (17:40) 6.67 (16:40) 0 0 0 0 0
13-04-2018 13.1 (18:10) 4.7 (00:00) 8.9 8.61 (18:40) 5.83 (19:30) 1.6 0.2 0 0 1.4
12-04-2018 10.9 (14:50) 3.5 (00:00) 7.2 10.28 (17:50) 7.5 (17:40) 1.2 0 0 0 1.2
11-04-2018 12.5 (16:10) 0.5 (00:00) 6.5 10.56 (14:20) 7.22 (20:40) 0.2 0 0.2 0 0
10-04-2018 8.6 (12:50) 1.6 (00:00) 5.1 13.33 (08:00) 9.72 (00:10) 14.4 1.6 5.2 4.4 3.2
09-04-2018 9.2 (20:00) 3.3 (00:00) 6.2 11.67 (23:59) 7.5 (23:59) 6.2 2.6 1 2.2 0.4
08-04-2018 13.5 (16:40) 4.5 (00:00) 9 13.89 (17:40) 10 (17:40) 0.8 0 0.2 0 0.6
07-04-2018 12.1 (17:40) 5.4 (00:00) 8.8 11.39 (18:20) 8.33 (18:30) 0.4 0.2 0 0 0.2
06-04-2018 18 (16:20) 2.5 (00:00) 10.3 13.61 (19:20) 9.72 (13:30) 1 0 0 0 1
05-04-2018 16.1 (19:20) 1.8 (00:00) 9 9.44 (01:00) 7.5 (01:00) 0 0 0 0 0
04-04-2018 13 (15:40) 5.6 (00:00) 9.3 16.67 (15:30) 11.94 (18:20) 1.4 0.4 0.2 0.8 0
03-04-2018 13 (13:50) 5.5 (00:00) 9.3 20 (16:00) 14.72 (16:00) 4.8 0.2 1.6 1.6 1.4
02-04-2018 13.4 (12:30) 9.1 (00:00) 11.3 15.28 (11:40) 11.94 (12:30) 0 0 0 0 0
01-04-2018 16.7 (18:00) 2.7 (00:00) 9.7 8.61 (16:00) 6.11 (17:30) 0 0 0 0 0
31-03-2018 11.4 (17:10) 2 (00:00) 6.7 18.61 (00:40) 12.78 (01:50) 0 0 0 0 0
30-03-2018 7.9 (14:10) 0.7 (00:00) 4.3 16.39 (15:10) 11.67 (15:10) 8 3.2 0 2.4 2.4
29-03-2018 10.6 (16:50) 1.3 (00:00) 6 14.17 (23:10) 10 (17:50) 7.4 0 0 0 7.4
28-03-2018 14.6 (16:30) 3.4 (00:00) 9 15.28 (15:20) 12.22 (15:40) 0 0 0 0 0
27-03-2018 21.1 (17:30) 6.3 (00:00) 13.7 10.56 (18:50) 7.78 (18:50) 0 0 0 0 0
26-03-2018 15.8 (17:40) 0.4 (00:00) 8.1 6.67 (18:50) 4.72 (02:40) 0 0 0 0 0
25-03-2018 11.6 (15:00) 0.4 (00:00) 6 10.83 (00:40) 7.5 (00:20) 0 0 0 0 0
24-03-2018 10.5 (16:00) 1.2 (00:00) 5.9 21.67 (12:10) 16.67 (12:30) 0 0 0 0 0
23-03-2018 10.9 (17:40) 3 (00:00) 6.9 17.5 (21:50) 11.67 (21:50) 2.8 0 0 0 2.8
22-03-2018 12.1 (18:10) -3.1 (-00:0) 4.5 9.44 (16:20) 6.94 (20:30) 0 0 0 0 0

Gráficas

Temp. máximas Temp. mínimas Temp. medias Precipitaciones Rachas de viento máximas Velocidades máximas media en intervalos de 10 minutos

Datos horarios

Fecha y hora oficial Temperatura (ºC) Velocidad del viento (km/h) Dirección del viento Racha (km/h) Dirección de racha Precipitación (mm) Presión (hPa) Tendencia (hPa) Humedad (%)
2018-04-20 23:00:00 12.3 3 Noroeste 3 Noroeste 0 -- -- 81
2018-04-20 22:00:00 14.4 2 Nordeste 11 Sur 0 -- -- 66
2018-04-20 21:00:00 17.3 10 Sur 27 Sudeste 0 -- -- 57
2018-04-20 20:00:00 19.9 22 Sudeste 28 Sudeste 0 -- -- 44
2018-04-20 19:00:00 20.8 21 Este 33 Este 0 -- -- 41
2018-04-20 18:00:00 21.3 22 Este 34 Este 0 -- -- 40
2018-04-20 17:00:00 20.6 21 Este 39 Este 0 -- -- 44
2018-04-20 16:00:00 20.6 19 Este 39 Este 0 -- -- 46
2018-04-20 15:00:00 19.8 23 Este 38 Este 0 -- -- 49
2018-04-20 14:00:00 18.6 23 Este 32 Este 0 -- -- 57
2018-04-20 13:00:00 17.8 18 Este 32 Este 0 -- -- 57
2018-04-20 12:00:00 16.5 15 Este 25 Este 0 -- -- 63
2018-04-20 11:00:00 15.5 17 Este 24 Nordeste 0 -- -- 61
2018-04-20 10:00:00 14.3 12 Este 18 Nordeste 0 -- -- 72
2018-04-20 09:00:00 11.8 8 Nordeste 14 Nordeste 0 -- -- 84
2018-04-20 08:00:00 10.3 0 Calma 3 Noroeste 0 -- -- 87
2018-04-20 07:00:00 9.6 3 Oeste 7 Noroeste 0 -- -- 92
2018-04-20 06:00:00 8.2 5 Noroeste 12 Oeste 0 -- -- 93
2018-04-20 05:00:00 8.5 8 Noroeste 12 Noroeste 0 -- -- 92
2018-04-20 04:00:00 9 6 Noroeste 11 Noroeste 0 -- -- 91
2018-04-20 03:00:00 9.4 8 Oeste 10 Oeste 0 -- -- 91
2018-04-20 02:00:00 10.2 2 Oeste 13 Oeste 0 -- -- 90
2018-04-20 01:00:00 11 7 Noroeste 9 Noroeste 0 -- -- 89
2018-04-20 00:00:00 13.4 6 Este 13 Este 0 -- -- 79
2018-04-19 23:00:00 14.2 3 Noroeste 11 Oeste 0 -- -- 81
2018-04-19 22:00:00 14.4 6 Oeste 9 Noroeste 0 -- -- 81
2018-04-19 21:00:00 19.9 2 Nordeste 12 Este 0 -- -- 58
2018-04-19 20:00:00 21.9 8 Este 22 Este 0 -- -- 45
2018-04-19 19:00:00 22.2 12 Este 23 Este 0 -- -- 41
2018-04-19 18:00:00 22.3 15 Este 27 Este 0 -- -- 46
2018-04-19 17:00:00 22.3 17 Este 28 Este 0 -- -- 46
2018-04-19 16:00:00 22.1 19 Este 32 Sudeste 0 -- -- 44
2018-04-19 15:00:00 21.7 21 Este 33 Sudeste 0 -- -- 44
2018-04-19 14:00:00 20.6 23 Sudeste 39 Este 0 -- -- 48
2018-04-19 13:00:00 18.9 16 Este 24 Este 0 -- -- 54
2018-04-19 12:00:00 16.6 8 Nordeste 16 Nordeste 0 -- -- 65
2018-04-19 11:00:00 14.3 12 Nordeste 17 Nordeste 0 -- -- 70
2018-04-19 10:00:00 13.4 9 Norte 15 Nordeste 0 -- -- 75
2018-04-19 09:00:00 10.8 4 Noroeste 12 Noroeste 0 -- -- 86
2018-04-19 08:00:00 8.1 5 Noroeste 13 Oeste 0 -- -- 92
2018-04-19 07:00:00 8.4 12 Noroeste 14 Noroeste 0 -- -- 91
2018-04-19 06:00:00 9 11 Noroeste 13 Oeste 0 -- -- 91
2018-04-19 05:00:00 10.1 5 Sudeste 18 Sudeste 0 -- -- 90
2018-04-19 04:00:00 10.3 8 Noroeste 14 Noroeste 0 -- -- 88
2018-04-19 03:00:00 10.5 6 Noroeste 10 Noroeste 0 -- -- 88
2018-04-19 02:00:00 11.7 2 Sudoeste 8 Oeste 0 -- -- 85
2018-04-19 01:00:00 11.5 0 Calma 14 Noroeste 0 -- -- 87
2018-04-19 00:00:00 12.3 9 Oeste 13 Oeste 0 -- -- 86
2018-04-18 23:00:00 13.8 8 Oeste 10 Oeste 0 -- -- 81
2018-04-18 22:00:00 16.5 5 Sudoeste 13 Sudeste 0 -- -- 67
2018-04-18 21:00:00 20.1 6 Sur 13 Sur 0 -- -- 57
2018-04-18 20:00:00 23.2 9 Sur 24 Sudoeste 0 -- -- 39
2018-04-18 19:00:00 23.9 14 Sur 23 Sur 0 -- -- 36
2018-04-18 18:00:00 24 9 Sudoeste 23 Oeste 0 -- -- 38
2018-04-18 17:00:00 23.8 12 Sudoeste 27 Sudoeste 0 -- -- 34
2018-04-18 16:00:00 23.6 10 Sudoeste 29 Sudoeste 0 -- -- 35
2018-04-18 15:00:00 22.1 8 Este 19 Este 0 -- -- 48
2018-04-18 14:00:00 20.2 6 Nordeste 15 Este 0 -- -- 54
2018-04-18 13:00:00 18.5 4 Nordeste 12 Este 0 -- -- 53
2018-04-18 12:00:00 17.2 3 Este 10 Este 0 -- -- 58
2018-04-18 11:00:00 15.1 2 Norte 6 Este 0 -- -- 62
2018-04-18 10:00:00 13 2 Norte 12 Noroeste 0 -- -- 68
2018-04-18 09:00:00 9.3 9 Noroeste 15 Oeste 0 -- -- 81
2018-04-18 08:00:00 6.1 13 Noroeste 14 Noroeste 0 -- -- 88
2018-04-18 07:00:00 5.9 7 Oeste 14 Oeste 0 -- -- 89
2018-04-18 06:00:00 5.8 4 Noroeste 5 Noroeste 0 -- -- 92
2018-04-18 05:00:00 6.9 5 Noroeste 9 Noroeste 0 -- -- 89
2018-04-18 04:00:00 7.3 7 Noroeste 13 Noroeste 0 -- -- 90
2018-04-18 03:00:00 7.6 10 Noroeste 13 Oeste 0 -- -- 89
2018-04-18 02:00:00 7.4 10 Noroeste 13 Oeste 0 -- -- 91
2018-04-18 01:00:00 8.8 5 Este 6 Sudeste 0 -- -- 86
2018-04-18 00:00:00 9.9 2 Noroeste 10 Noroeste 0 -- -- 81
2018-04-17 23:00:00 11.5 10 Noroeste 14 Sudoeste 0 -- -- 75
2018-04-17 22:00:00 13.4 14 Sudoeste 15 Sudoeste 0 -- -- 65
2018-04-17 21:00:00 16.9 12 Sur 15 Sudoeste 0 -- -- 53
2018-04-17 20:00:00 19.9 11 Sur 17 Sudoeste 0 -- -- 42
2018-04-17 19:00:00 20.7 11 Sudoeste 21 Sudoeste 0 -- -- 34
2018-04-17 18:00:00 20.7 11 Sudoeste 22 Sudoeste 0 -- -- 32
2018-04-17 17:00:00 20.1 12 Sudoeste 21 Sur 0 -- -- 37
2018-04-17 16:00:00 19.1 12 Sudoeste 21 Sudoeste 0 -- -- 44
2018-04-17 15:00:00 18.1 13 Sudoeste 28 Sudoeste 0 -- -- 47
2018-04-17 14:00:00 16.8 10 Sudoeste 21 Sudoeste 0 -- -- 52
2018-04-17 13:00:00 15.4 11 Sudoeste 18 Sudoeste 0 -- -- 57
2018-04-17 12:00:00 14.1 9 Sudoeste 17 Sur 0 -- -- 61
2018-04-17 11:00:00 11.8 7 Este 10 Nordeste 0 -- -- 74
2018-04-17 10:00:00 8.7 2 Sudeste 6 Este 0 -- -- 82
2018-04-17 09:00:00 5.9 4 Este 9 Oeste 0 -- -- 89
2018-04-17 08:00:00 4 5 Noroeste 8 Oeste 0 -- -- 96
2018-04-17 07:00:00 3.6 3 Oeste 6 Sudoeste 0 -- -- 93
2018-04-17 06:00:00 3.7 0 Calma 2 Sudeste 0 -- -- 91
2018-04-17 05:00:00 4.7 3 Sudeste 6 Noroeste 0 -- -- 89
2018-04-17 04:00:00 5.5 3 Noroeste 9 Oeste 0 -- -- 86
2018-04-17 03:00:00 7.4 5 Oeste 10 Sudoeste 0 -- -- 78
2018-04-17 02:00:00 7.6 4 Oeste 9 Oeste 0 -- -- 78
2018-04-17 01:00:00 7.9 4 Oeste 9 Oeste 0 -- -- 77
2018-04-17 00:00:00 9 0 Calma 13 Noroeste 0 -- -- 72
2018-04-16 23:00:00 9.6 4 Sudoeste 9 Este 0 -- -- 70
2018-04-16 22:00:00 10.8 6 Sudoeste 17 Sudoeste 0 -- -- 65
2018-04-16 21:00:00 13.1 11 Sudoeste 24 Sudoeste 0 -- -- 53
2018-04-16 20:00:00 14.9 17 Sudoeste 27 Sudoeste 0 -- -- 47
2018-04-16 19:00:00 15.2 17 Sudoeste 27 Sudoeste 0 -- -- 44
2018-04-16 18:00:00 15.2 15 Sudoeste 30 Sudoeste 0 -- -- 45
2018-04-16 17:00:00 14.9 15 Sudoeste 35 Sudoeste 0 -- -- 44
2018-04-16 16:00:00 13.9 15 Sudoeste 27 Sudoeste 0 -- -- 52
2018-04-16 15:00:00 13.1 15 Sudoeste 26 Sudoeste 0 -- -- 56
2018-04-16 14:00:00 12.1 14 Sur 23 Sudoeste 0 -- -- 61
2018-04-16 13:00:00 11.2 10 Sur 19 Sur 0 -- -- 60
2018-04-16 12:00:00 9.8 6 Oeste 13 Sudoeste 0 -- -- 63
2018-04-16 11:00:00 9.1 4 Norte 18 Oeste 0 -- -- 63
2018-04-16 10:00:00 7.6 8 Oeste 15 Oeste 0 -- -- 74
2018-04-16 09:00:00 5.7 12 Oeste 21 Oeste 0 -- -- 84
2018-04-16 08:00:00 3.3 9 Noroeste 21 Oeste 0 -- -- 90
2018-04-16 07:00:00 3.9 15 Noroeste 34 Oeste 0 -- -- 89
2018-04-16 06:00:00 4.8 23 Noroeste 33 Noroeste 0 -- -- 86
2018-04-16 05:00:00 4.2 12 Noroeste 22 Oeste 0 -- -- 89
2018-04-16 04:00:00 4.5 11 Noroeste 21 Oeste 0 -- -- 89
2018-04-16 03:00:00 5.6 19 Oeste 32 Oeste 0 -- -- 87
2018-04-16 02:00:00 6.1 24 Oeste 35 Oeste 0 -- -- 85
2018-04-16 01:00:00 6.2 24 Oeste 32 Oeste 0 -- -- 87
2018-04-16 00:00:00 6.5 9 Oeste 27 Oeste 0 -- -- 86
2018-04-15 23:00:00 7.4 13 Sudoeste 18 Sudoeste 0 -- -- 86
2018-04-15 22:00:00 8.1 8 Oeste 40 Oeste 0.4 -- -- 84
2018-04-15 21:00:00 9.5 17 Sudoeste 23 Sudoeste 0 -- -- 86
2018-04-15 20:00:00 10 15 Sudoeste 24 Sudoeste 0.8 -- -- 85
2018-04-15 19:00:00 12.1 14 Oeste 31 Oeste 0 -- -- 65
2018-04-15 18:00:00 12.6 23 Oeste 33 Oeste 0 -- -- 61
2018-04-15 17:00:00 12.9 26 Oeste 43 Oeste 0 -- -- 64
2018-04-15 16:00:00 12.9 29 Oeste 42 Oeste 0 -- -- 69
2018-04-15 15:00:00 13.4 28 Oeste 40 Oeste 0 -- -- 71
2018-04-15 14:00:00 12.3 18 Oeste 34 Oeste 0 -- -- 76
2018-04-15 13:00:00 11.8 15 Oeste 28 Sudoeste 0 -- -- 82
2018-04-15 12:00:00 10.6 16 Sudoeste 27 Sudoeste 0 -- -- 89
2018-04-15 11:00:00 9.6 16 Sudoeste 27 Sudoeste 0 -- -- 93
2018-04-15 10:00:00 9 17 Sudoeste 23 Sudoeste 0 -- -- 95
2018-04-15 09:00:00 8.5 0 Calma 6 Sudoeste 0.2 -- -- 95
2018-04-15 08:00:00 8.1 5 Oeste 8 Sudoeste 0 -- -- 95
2018-04-15 07:00:00 8.2 8 Oeste 19 Oeste 0 -- -- 94
2018-04-15 06:00:00 8.2 14 Oeste 39 Sudoeste 0 -- -- 90
2018-04-15 05:00:00 8.6 28 Sudoeste 40 Sudoeste 0.2 -- -- 86
2018-04-15 04:00:00 9.3 11 Oeste 15 Sudoeste 0 -- -- 86
2018-04-15 03:00:00 9.6 6 Sudoeste 11 Sudoeste 0 -- -- 82
2018-04-15 02:00:00 9.8 4 Sudoeste 15 Sudoeste 0 -- -- 80
2018-04-15 01:00:00 10.2 11 Sudoeste 18 Oeste 0 -- -- 76
2018-04-15 00:00:00 10.1 16 Oeste 25 Sudoeste 0 -- -- 75
2018-04-14 23:00:00 8.7 9 Sudoeste 12 Sudoeste 0 -- -- 80
2018-04-14 22:00:00 9.9 11 Sudoeste 15 Sudoeste 0 -- -- 74
2018-04-14 21:00:00 12.3 12 Sudoeste 22 Sudoeste 0 -- -- 61
2018-04-14 20:00:00 14 17 Sudoeste 29 Sudoeste 0 -- -- 57
2018-04-14 19:00:00 14.7 17 Sudoeste 33 Sudoeste 0 -- -- 57
2018-04-14 18:00:00 15.2 20 Sudoeste 34 Sudoeste 0 -- -- 55
2018-04-14 17:00:00 14.2 20 Sudoeste 33 Sudoeste 0 -- -- 55
2018-04-14 16:00:00 14.5 19 Sudoeste 28 Oeste 0 -- -- 56
2018-04-14 15:00:00 13.3 13 Sur 27 Sudeste 0 -- -- 66
2018-04-14 14:00:00 13.2 17 Sudeste 26 Sudeste 0 -- -- 64
2018-04-14 13:00:00 11.1 12 Sur 18 Sudeste 0 -- -- 75
2018-04-14 12:00:00 10.6 9 Este 15 Este 0 -- -- 83
2018-04-14 11:00:00 8.8 5 Este 12 Este 0 -- -- 88
2018-04-14 10:00:00 8.1 3 Este 5 Nordeste 0 -- -- 94
2018-04-14 09:00:00 6.2 2 Nordeste 4 Nordeste 0 -- -- 97
2018-04-14 08:00:00 5.3 0 Calma 5 Noroeste 0 -- -- 97
2018-04-14 07:00:00 5 2 Noroeste 8 Oeste 0 -- -- 97
2018-04-14 06:00:00 5.1 0 Calma 9 Noroeste 0 -- -- 97
2018-04-14 05:00:00 4.2 5 Noroeste 8 Oeste 0 -- -- 97
2018-04-14 04:00:00 3.8 4 Noroeste 6 Sudoeste 0 -- -- 96
2018-04-14 03:00:00 4.3 6 Oeste 10 Oeste 0 -- -- 96
2018-04-14 02:00:00 4.8 4 Noroeste 8 Oeste 0 -- -- 96
2018-04-14 01:00:00 5.4 7 Oeste 9 Noroeste 0 -- -- 95
2018-04-14 00:00:00 6.9 3 Noroeste 9 Noroeste 0 -- -- 95
2018-04-13 23:00:00 7.8 0 Calma 4 Oeste 0 -- -- 94
2018-04-13 22:00:00 8.2 0 Calma 5 Nordeste 0 -- -- 92
2018-04-13 21:00:00 8.5 3 Nordeste 15 Nordeste 0.2 -- -- 91
2018-04-13 20:00:00 8.9 14 Nordeste 28 Norte 0.8 -- -- 90
2018-04-13 19:00:00 9.4 21 Norte 31 Noroeste 0.4 -- -- 85
2018-04-13 18:00:00 12.5 5 Oeste 20 Oeste 0 -- -- 64
2018-04-13 17:00:00 11.7 17 Oeste 25 Noroeste 0 -- -- 69
2018-04-13 16:00:00 12.4 9 Sudeste 16 Sudeste 0 -- -- 61
2018-04-13 15:00:00 12.5 7 Sur 15 Sudeste 0 -- -- 60
2018-04-13 14:00:00 12.3 4 Oeste 10 Sudeste 0 -- -- 64
2018-04-13 13:00:00 10.7 4 Sudeste 10 Este 0 -- -- 67
2018-04-13 12:00:00 9.6 3 Sudoeste 7 Sudeste 0 -- -- 73
2018-04-13 11:00:00 7.8 2 Noroeste 5 Noroeste 0 -- -- 82
2018-04-13 10:00:00 7.1 2 Nordeste 8 Oeste 0 -- -- 83
2018-04-13 09:00:00 5.5 4 Oeste 10 Oeste 0 -- -- 92
2018-04-13 08:00:00 5 8 Oeste 13 Oeste 0 -- -- 92
2018-04-13 07:00:00 4.9 6 Noroeste 15 Oeste 0 -- -- 92
2018-04-13 06:00:00 4.9 11 Sudoeste 15 Oeste 0 -- -- 91
2018-04-13 05:00:00 4.9 9 Oeste 13 Oeste 0 -- -- 92
2018-04-13 04:00:00 5 5 Noroeste 10 Noroeste 0.2 -- -- 93
2018-04-13 03:00:00 4.8 4 Noroeste 9 Oeste 0 -- -- 92
2018-04-13 02:00:00 4.8 5 Oeste 10 Oeste 0 -- -- 91
2018-04-13 01:00:00 4.7 8 Oeste 15 Oeste 0 -- -- 92
2018-04-13 00:00:00 5.2 7 Oeste 15 Sudoeste 0.6 -- -- 92
2018-04-12 23:00:00 5.5 4 Sudoeste 14 Sudoeste 0.2 -- -- 91
2018-04-12 22:00:00 5.8 11 Sudoeste 17 Sudoeste 0.2 -- -- 89
2018-04-12 21:00:00 6.5 7 Sudoeste 17 Sudoeste 0 -- -- 88
2018-04-12 20:00:00 6.6 12 Sudoeste 28 Sudoeste 0.2 -- -- 88
2018-04-12 19:00:00 7.1 20 Sudoeste 32 Sur 0 -- -- 85
2018-04-12 18:00:00 8.2 26 Sur 37 Sur 0 -- -- 80
2018-04-12 17:00:00 9.3 25 Sur 35 Sur 0 -- -- 76
2018-04-12 16:00:00 9.8 24 Sudoeste 35 Sudoeste 0 -- -- 76
2018-04-12 15:00:00 10.5 23 Sudoeste 31 Sur 0 -- -- 64
2018-04-12 14:00:00 10.3 16 Sur 30 Sur 0 -- -- 68
2018-04-12 13:00:00 9.8 20 Sur 30 Sur 0 -- -- 69
2018-04-12 12:00:00 8.4 18 Sudoeste 26 Sur 0 -- -- 76
2018-04-12 11:00:00 7.2 17 Sudoeste 24 Sudoeste 0 -- -- 86
2018-04-12 10:00:00 6.1 13 Sudoeste 20 Sudoeste 0 -- -- 92
2018-04-12 09:00:00 5.2 11 Sudoeste 18 Sudoeste 0 -- -- 95
2018-04-12 08:00:00 4.1 3 Noroeste 26 Sudoeste 0 -- -- 94
2018-04-12 07:00:00 3.5 2 Sudeste 10 Noroeste 0 -- -- 92
2018-04-12 06:00:00 3.9 7 Noroeste 19 Oeste 0 -- -- 91
2018-04-12 05:00:00 4.2 11 Oeste 22 Noroeste 0 -- -- 91
2018-04-12 04:00:00 4.5 12 Noroeste 21 Oeste 0 -- -- 88
2018-04-12 03:00:00 4.5 17 Noroeste 24 Oeste 0 -- -- 89
2018-04-12 02:00:00 5 16 Oeste 31 Oeste 0 -- -- 86
2018-04-12 01:00:00 5.7 22 Oeste 32 Oeste 0 -- -- 84
2018-04-12 00:00:00 5.9 18 Oeste 28 Oeste 0 -- -- 83
2018-04-11 23:00:00 6.4 13 Noroeste 31 Oeste 0 -- -- 79
2018-04-11 22:00:00 7.6 19 Oeste 28 Noroeste 0 -- -- 73
2018-04-11 21:00:00 9.4 21 Oeste 37 Noroeste 0 -- -- 67
2018-04-11 20:00:00 11 14 Noroeste 36 Oeste 0 -- -- 59
2018-04-11 19:00:00 12 19 Noroeste 33 Noroeste 0 -- -- 51
2018-04-11 18:00:00 11.9 20 Norte 31 Norte 0 -- -- 50
2018-04-11 17:00:00 12.2 19 Noroeste 31 Noroeste 0 -- -- 49
2018-04-11 16:00:00 12.4 21 Noroeste 35 Norte 0 -- -- 48
2018-04-11 15:00:00 11.7 19 Norte 38 Noroeste 0 -- -- 50
2018-04-11 14:00:00 10.6 16 Noroeste 36 Noroeste 0 -- -- 48
2018-04-11 13:00:00 9.2 19 Noroeste 32 Noroeste 0 -- -- 59
2018-04-11 12:00:00 7.8 19 Oeste 28 Oeste 0 -- -- 63
2018-04-11 11:00:00 6.5 17 Oeste 31 Oeste 0 -- -- 62
2018-04-11 10:00:00 5 21 Oeste 28 Oeste 0.2 -- -- 67
2018-04-11 09:00:00 3.2 12 Oeste 19 Noroeste 0 -- -- 77
2018-04-11 08:00:00 1.1 13 Oeste 19 Oeste 0 -- -- 83
2018-04-11 07:00:00 0.5 10 Noroeste 16 Noroeste 0 -- -- 85
2018-04-11 06:00:00 1 14 Noroeste 21 Noroeste 0 -- -- 86
2018-04-11 05:00:00 1.1 13 Noroeste 17 Noroeste 0 -- -- 90
2018-04-11 04:00:00 0.9 11 Noroeste 16 Noroeste 0 -- -- 94
2018-04-11 03:00:00 1.4 6 Noroeste 10 Oeste 0 -- -- 93
2018-04-11 02:00:00 2.2 7 Oeste 9 Oeste 0 -- -- 93
2018-04-11 01:00:00 2.9 5 Noroeste 9 Nordeste 0 -- -- 93
2018-04-11 00:00:00 2.9 6 Nordeste 10 Este 0 -- -- 92
2018-04-10 23:00:00 2.5 7 Este 27 Norte 0.4 -- -- 93
2018-04-10 22:00:00 1.7 18 Noroeste 40 Noroeste 0.6 -- -- 93
2018-04-10 21:00:00 2.9 26 Oeste 35 Oeste 1 -- -- 91
2018-04-10 20:00:00 2.8 8 Norte 23 Este 1.2 -- -- 87
2018-04-10 19:00:00 6 14 Nordeste 31 Oeste 0 -- -- 78
2018-04-10 18:00:00 7.8 23 Oeste 30 Oeste 0 -- -- 71
2018-04-10 17:00:00 4.7 17 Sudoeste 34 Oeste 0.6 -- -- 85
2018-04-10 16:00:00 2.9 17 Oeste 33 Noroeste 3.6 -- -- 92
2018-04-10 15:00:00 7.9 10 Oeste 28 Sudoeste 0 -- -- 70
2018-04-10 14:00:00 7.7 23 Oeste 38 Sudoeste 0 -- -- 70
2018-04-10 13:00:00 8.5 15 Oeste 39 Sudoeste 0.2 -- -- 66
2018-04-10 12:00:00 6.9 22 Oeste 30 Sudoeste 0 -- -- 78
2018-04-10 11:00:00 6.5 20 Oeste 37 Oeste 0 -- -- 83
2018-04-10 10:00:00 4.7 24 Oeste 36 Oeste 0.2 -- -- 90
2018-04-10 09:00:00 5.1 23 Oeste 46 Sudoeste 1.2 -- -- 91
2018-04-10 08:00:00 5.2 30 Sudoeste 48 Sudoeste 2 -- -- 90
2018-04-10 07:00:00 5 23 Sudoeste 47 Sudoeste 1.8 -- -- 90
2018-04-10 06:00:00 5.2 31 Sudoeste 45 Sudoeste 0.8 -- -- 90
2018-04-10 05:00:00 5.4 27 Sudoeste 45 Sudoeste 0.8 -- -- 90
2018-04-10 04:00:00 6.5 24 Sudoeste 35 Sudoeste 0 -- -- 88
2018-04-10 03:00:00 6.7 22 Sudoeste 33 Sudoeste 0 -- -- 88
2018-04-10 02:00:00 6.4 20 Sudoeste 35 Oeste 0 -- -- 90
2018-04-10 01:00:00 6.9 30 Oeste 45 Oeste 0 -- -- 85
2018-04-10 00:00:00 6.8 27 Oeste 42 Oeste 0 -- -- 89
2018-04-09 23:00:00 6.8 18 Sudoeste 30 Sudoeste 0 -- -- 92
2018-04-09 22:00:00 7 22 Sudoeste 27 Sudoeste 0 -- -- 89
2018-04-09 21:00:00 8 10 Sudoeste 22 Sudoeste 0 -- -- 86
2018-04-09 20:00:00 9.2 14 Sudoeste 19 Sudoeste 0 -- -- 80
2018-04-09 19:00:00 8.8 11 Oeste 16 Oeste 0.4 -- -- 81
2018-04-09 18:00:00 7.9 13 Oeste 24 Oeste 0.8 -- -- 85
2018-04-09 17:00:00 8.5 18 Oeste 25 Sudoeste 0 -- -- 79
2018-04-09 16:00:00 7.8 17 Sudoeste 26 Sudoeste 0 -- -- 81
2018-04-09 15:00:00 6.3 14 Oeste 19 Oeste 0.2 -- -- 84
2018-04-09 14:00:00 5.8 3 Noroeste 9 Oeste 0.2 -- -- 86
2018-04-09 13:00:00 5.2 3 Norte 7 Noroeste 1 -- -- 86
2018-04-09 12:00:00 4.8 3 Noroeste 10 Oeste 0.2 -- -- 86
2018-04-09 11:00:00 4.4 2 Oeste 8 Oeste 0.2 -- -- 87
2018-04-09 10:00:00 3.7 5 Oeste 8 Oeste 0.2 -- -- 89
2018-04-09 09:00:00 3.4 5 Oeste 9 Oeste 0.2 -- -- 92
2018-04-09 08:00:00 3.3 5 Sudoeste 13 Sudoeste 0 -- -- 92
2018-04-09 07:00:00 3.4 6 Sudoeste 10 Sudoeste 0.2 -- -- 92
2018-04-09 06:00:00 3.5 5 Sudoeste 9 Sudoeste 0.2 -- -- 91
2018-04-09 05:00:00 3.4 8 Oeste 10 Oeste 0.2 -- -- 91
2018-04-09 04:00:00 3.6 3 Oeste 10 Oeste 0.2 -- -- 91
2018-04-09 03:00:00 3.6 9 Oeste 23 Sudoeste 0.8 -- -- 91
2018-04-09 02:00:00 4.1 16 Sudoeste 24 Sudoeste 0.8 -- -- 90
2018-04-09 01:00:00 5.2 14 Sudoeste 21 Sudoeste 0.4 -- -- 92
2018-04-09 00:00:00 5.9 5 Oeste 13 Sudoeste 0.2 -- -- 89
2018-04-08 23:00:00 6.5 8 Sudoeste 29 Sudoeste 0 -- -- 89
2018-04-08 22:00:00 7.1 20 Sudoeste 33 Sudoeste 0 -- -- 82
2018-04-08 21:00:00 8.9 19 Oeste 30 Oeste 0 -- -- 76
2018-04-08 20:00:00 9.3 5 Noroeste 24 Oeste 0 -- -- 81
2018-04-08 19:00:00 9.4 15 Oeste 31 Sudoeste 0.4 -- -- 83
2018-04-08 18:00:00 11 24 Sudoeste 50 Sudoeste 0 -- -- 67
2018-04-08 17:00:00 12.3 33 Oeste 45 Oeste 0 -- -- 69
2018-04-08 16:00:00 12.8 28 Sudoeste 46 Sudoeste 0 -- -- 60
2018-04-08 15:00:00 11.1 29 Sudoeste 42 Sudoeste 0 -- -- 70
2018-04-08 14:00:00 11.3 23 Oeste 39 Oeste 0 -- -- 64
2018-04-08 13:00:00 10.7 25 Oeste 40 Sudoeste 0 -- -- 72
2018-04-08 12:00:00 9.2 27 Sudoeste 38 Sudoeste 0 -- -- 78
2018-04-08 11:00:00 8.1 23 Oeste 32 Sudoeste 0.2 -- -- 83
2018-04-08 10:00:00 7 19 Oeste 27 Oeste 0 -- -- 86
2018-04-08 09:00:00 5.8 7 Oeste 27 Oeste 0 -- -- 89
2018-04-08 08:00:00 4.9 18 Oeste 26 Oeste 0 -- -- 91
2018-04-08 07:00:00 5 14 Oeste 22 Oeste 0 -- -- 93
2018-04-08 06:00:00 4.7 10 Noroeste 26 Oeste 0 -- -- 91
2018-04-08 05:00:00 5 13 Oeste 22 Oeste 0 -- -- 90
2018-04-08 04:00:00 4.9 7 Noroeste 14 Noroeste 0 -- -- 91
2018-04-08 03:00:00 5 5 Noroeste 15 Oeste 0 -- -- 89
2018-04-08 02:00:00 5.4 6 Norte 15 Oeste 0 -- -- 88
2018-04-08 01:00:00 5.8 5 Oeste 8 Oeste 0 -- -- 88
2018-04-08 00:00:00 5.8 6 Noroeste 14 Oeste 0 -- -- 85
2018-04-07 23:00:00 5.6 3 Sudoeste 10 Sur 0 -- -- 85
2018-04-07 22:00:00 6.7 11 Norte 24 Oeste 0 -- -- 80
2018-04-07 21:00:00 7.5 17 Oeste 32 Oeste 0 -- -- 78
2018-04-07 20:00:00 10.8 22 Sudoeste 28 Sudoeste 0 -- -- 65
2018-04-07 19:00:00 10.2 15 Oeste 41 Sudoeste 0.2 -- -- 63
2018-04-07 18:00:00 11.9 13 Sudoeste 28 Oeste 0 -- -- 56
2018-04-07 17:00:00 11.9 17 Sudoeste 31 Oeste 0 -- -- 60
2018-04-07 16:00:00 12 12 Oeste 30 Oeste 0 -- -- 59
2018-04-07 15:00:00 10.9 18 Oeste 31 Oeste 0 -- -- 67
2018-04-07 14:00:00 10.7 17 Sudoeste 24 Sudoeste 0 -- -- 67
2018-04-07 13:00:00 9.5 15 Oeste 25 Sudoeste 0 -- -- 71
2018-04-07 12:00:00 8.1 10 Sudoeste 17 Sudoeste 0 -- -- 80
2018-04-07 11:00:00 7 6 Sudoeste 14 Sudoeste 0 -- -- 88
2018-04-07 10:00:00 6.3 12 Sudoeste 19 Oeste 0 -- -- 91
2018-04-07 09:00:00 5.6 2 Sudoeste 4 Sudoeste 0 -- -- 93
2018-04-07 08:00:00 5.6 3 Sur 10 Oeste 0 -- -- 93
2018-04-07 07:00:00 5.6 4 Sudoeste 8 Sudoeste 0 -- -- 92
2018-04-07 06:00:00 5.7 6 Oeste 12 Oeste 0 -- -- 91
2018-04-07 05:00:00 6 7 Sudoeste 16 Sudoeste 0 -- -- 91
2018-04-07 04:00:00 6.1 12 Oeste 20 Oeste 0 -- -- 90
2018-04-07 03:00:00 6.3 10 Sudoeste 20 Sudoeste 0 -- -- 91
2018-04-07 02:00:00 6.5 10 Sudoeste 28 Oeste 0 -- -- 90
2018-04-07 01:00:00 6.9 17 Oeste 27 Oeste 0.2 -- -- 90
2018-04-07 00:00:00 7.6 13 Sur 21 Sudoeste 0.2 -- -- 92
2018-04-06 23:00:00 7.6 15 Sudoeste 29 Oeste 0.6 -- -- 90
2018-04-06 22:00:00 8 25 Sudoeste 41 Oeste 0.2 -- -- 86
2018-04-06 21:00:00 9.6 33 Oeste 48 Noroeste 0 -- -- 71
2018-04-06 20:00:00 12.3 25 Oeste 49 Sudoeste 0 -- -- 69
2018-04-06 19:00:00 15.7 26 Sudoeste 46 Sudoeste 0 -- -- 53
2018-04-06 18:00:00 16.8 27 Sudoeste 44 Sudoeste 0 -- -- 50
2018-04-06 17:00:00 17.1 27 Sur 48 Sur 0 -- -- 45
2018-04-06 16:00:00 17.1 30 Sur 48 Sur 0 -- -- 49
2018-04-06 15:00:00 17.6 34 Sur 48 Sur 0 -- -- 46
2018-04-06 14:00:00 16.5 30 Sur 46 Sudoeste 0 -- -- 50
2018-04-06 13:00:00 15.2 28 Sudoeste 42 Sudoeste 0 -- -- 57
2018-04-06 12:00:00 14.1 20 Sur 33 Sudoeste 0 -- -- 68
2018-04-06 11:00:00 11.1 7 Sudeste 17 Sudoeste 0 -- -- 80
2018-04-06 10:00:00 7.4 0 Calma 5 Este 0 -- -- 88
2018-04-06 09:00:00 4.3 0 Calma 4 Oeste 0 -- -- 97
2018-04-06 08:00:00 2.7 0 Calma 9 Oeste 0 -- -- 95
2018-04-06 07:00:00 2.7 3 Noroeste 5 Oeste 0 -- -- 95
2018-04-06 06:00:00 3.5 5 Noroeste 8 Noroeste 0 -- -- 94
2018-04-06 05:00:00 4.1 0 Calma 4 Noroeste 0 -- -- 93
2018-04-06 04:00:00 4.8 0 Calma 8 Este 0 -- -- 91
2018-04-06 03:00:00 5.4 0 Calma 7 Este 0 -- -- 88
2018-04-06 02:00:00 6.4 2 Noroeste 9 Oeste 0 -- -- 87
2018-04-06 01:00:00 8.9 8 Oeste 18 Sudoeste 0 -- -- 76
2018-04-06 00:00:00 9.2 15 Sudoeste 22 Oeste 0 -- -- 73
2018-04-05 23:00:00 8.6 4 Sudoeste 13 Sudoeste 0 -- -- 72
2018-04-05 22:00:00 9.3 3 Oeste 9 Sur 0 -- -- 71
2018-04-05 21:00:00 12.5 7 Sur 13 Sur 0 -- -- 62
2018-04-05 20:00:00 15.6 9 Sur 19 Sur 0 -- -- 46
2018-04-05 19:00:00 15.9 10 Sur 26 Sur 0 -- -- 40
2018-04-05 18:00:00 15.7 12 Sudoeste 27 Sudoeste 0 -- -- 41
2018-04-05 17:00:00 15.8 14 Sudoeste 26 Sudoeste 0 -- -- 40
2018-04-05 16:00:00 15.3 10 Sur 26 Sur 0 -- -- 46
2018-04-05 15:00:00 13.8 13 Sur 22 Sur 0 -- -- 60
2018-04-05 14:00:00 12.3 13 Sur 27 Sudeste 0 -- -- 68
2018-04-05 13:00:00 10.9 14 Sudeste 24 Sudeste 0 -- -- 71
2018-04-05 12:00:00 9 6 Nordeste 12 Este 0 -- -- 82
2018-04-05 11:00:00 7.1 4 Nordeste 8 Nordeste 0 -- -- 89
2018-04-05 10:00:00 5.1 0 Calma 7 Este 0 -- -- 94
2018-04-05 09:00:00 2.7 0 Calma 3 Oeste 0 -- -- 95
2018-04-05 08:00:00 2 2 Noroeste 6 Norte 0 -- -- 92
2018-04-05 07:00:00 4.2 3 Sudoeste 12 Noroeste 0 -- -- 91
2018-04-05 06:00:00 4.3 2 Oeste 18 Oeste 0 -- -- 91
2018-04-05 05:00:00 5.6 13 Noroeste 22 Oeste 0 -- -- 92
2018-04-05 04:00:00 5.7 14 Oeste 29 Oeste 0 -- -- 89
2018-04-05 03:00:00 6.2 18 Sudoeste 27 Sudoeste 0 -- -- 87
2018-04-05 02:00:00 6.6 19 Oeste 32 Sudoeste 0 -- -- 86
2018-04-05 01:00:00 7.3 27 Sudoeste 34 Sudoeste 0 -- -- 84
2018-04-05 00:00:00 7.6 14 Sudoeste 33 Oeste 0 -- -- 82
2018-04-04 23:00:00 8.3 21 Sudoeste 33 Oeste 0 -- -- 78
2018-04-04 22:00:00 8.7 22 Oeste 40 Oeste 0 -- -- 74
2018-04-04 21:00:00 9.8 21 Oeste 43 Oeste 0 -- -- 71
2018-04-04 20:00:00 10.8 31 Oeste 54 Oeste 0 -- -- 66
2018-04-04 19:00:00 12.1 37 Oeste 60 Oeste 0 -- -- 61
2018-04-04 18:00:00 12.3 31 Oeste 58 Oeste 0 -- -- 68
2018-04-04 17:00:00 12.6 35 Oeste 51 Oeste 0.2 -- -- 68
2018-04-04 16:00:00 12.5 31 Sudoeste 60 Sudoeste 0 -- -- 67
2018-04-04 15:00:00 11.6 33 Sudoeste 50 Sudoeste 0 -- -- 77
2018-04-04 14:00:00 10.5 26 Oeste 42 Sudoeste 0.2 -- -- 78
2018-04-04 13:00:00 9 25 Sudoeste 42 Sudoeste 0.4 -- -- 89
2018-04-04 12:00:00 8.6 30 Oeste 46 Sudoeste 0.2 -- -- 83
2018-04-04 11:00:00 8.2 27 Sudoeste 45 Sudoeste 0 -- -- 86
2018-04-04 10:00:00 7.4 29 Sudoeste 42 Sudoeste 0 -- -- 88
2018-04-04 09:00:00 6.7 22 Sudoeste 39 Sudoeste 0 -- -- 90
2018-04-04 08:00:00 6.4 23 Sudoeste 37 Sudoeste 0 -- -- 89
2018-04-04 07:00:00 6.8 24 Sudoeste 50 Sudoeste 0 -- -- 88
2018-04-04 06:00:00 6.8 24 Sudoeste 44 Sudoeste 0 -- -- 88
2018-04-04 05:00:00 6.7 27 Sudoeste 48 Sudoeste 0 -- -- 88
2018-04-04 04:00:00 6.3 28 Sudoeste 43 Sudoeste 0 -- -- 89
2018-04-04 03:00:00 5.9 29 Sudoeste 49 Sudoeste 0 -- -- 89
2018-04-04 02:00:00 5.7 35 Sudoeste 54 Sudoeste 0 -- -- 90
2018-04-04 01:00:00 5.8 35 Sudoeste 50 Sudoeste 0.4 -- -- 90
2018-04-04 00:00:00 5.8 28 Oeste 66 Oeste 1.2 -- -- 90
2018-04-03 23:00:00 7.5 31 Sudoeste 55 Sudoeste 0.2 -- -- 83
2018-04-03 22:00:00 7.5 32 Sudoeste 54 Sudoeste 0 -- -- 82
2018-04-03 21:00:00 7.9 27 Sudoeste 49 Sudoeste 0 -- -- 80
2018-04-03 20:00:00 8.2 32 Sudoeste 54 Sudoeste 0 -- -- 79
2018-04-03 19:00:00 8.5 31 Sudoeste 59 Sudoeste 0 -- -- 81
2018-04-03 18:00:00 8.3 40 Sudoeste 56 Sudoeste 0.4 -- -- 82
2018-04-03 17:00:00 8.4 34 Oeste 55 Oeste 0.4 -- -- 84
2018-04-03 16:00:00 8.1 53 Oeste 72 Oeste 0.8 -- -- 83
2018-04-03 15:00:00 9.7 40 Oeste 63 Sudoeste 0 -- -- 77
2018-04-03 14:00:00 12.8 49 Sudoeste 68 Sudoeste 0 -- -- 59
2018-04-03 13:00:00 11.7 47 Sudoeste 67 Sudoeste 0 -- -- 64
2018-04-03 12:00:00 9.3 18 Oeste 47 Sudoeste 0.2 -- -- 86
2018-04-03 11:00:00 9.9 33 Sudoeste 53 Sudoeste 0 -- -- 78
2018-04-03 10:00:00 8 31 Sudoeste 46 Sudoeste 0.2 -- -- 86
2018-04-03 09:00:00 6.7 26 Oeste 48 Sudoeste 1 -- -- 87
2018-04-03 08:00:00 8.4 29 Sudoeste 53 Sudoeste 0.2 -- -- 87
2018-04-03 07:00:00 8.1 26 Sudoeste 44 Sudoeste 0 -- -- 89
2018-04-03 06:00:00 8.5 26 Sudoeste 49 Sudoeste 0.2 -- -- 87
2018-04-03 05:00:00 8.8 30 Sudoeste 47 Sudoeste 0 -- -- 85
2018-04-03 04:00:00 9.2 26 Sudoeste 40 Sudoeste 0 -- -- 83
2018-04-03 03:00:00 9.2 25 Sudoeste 37 Sudoeste 0 -- -- 85
2018-04-03 02:00:00 9.2 18 Sudoeste 35 Sudoeste 0 -- -- 86
2018-04-03 01:00:00 9.6 22 Sudoeste 36 Sudoeste 0 -- -- 83
2018-04-03 00:00:00 9.5 19 Sudoeste 30 Sudoeste 0 -- -- 82
2018-04-02 23:00:00 9.9 19 Sudoeste 35 Sudoeste 0 -- -- 82
2018-04-02 22:00:00 10.1 20 Sudoeste 32 Sudoeste 0 -- -- 83
2018-04-02 21:00:00 10.5 19 Sudoeste 33 Sudoeste 0 -- -- 85
2018-04-02 20:00:00 11.4 25 Sudoeste 42 Sudoeste 0 -- -- 79
2018-04-02 19:00:00 11.5 26 Sudoeste 44 Sudoeste 0 -- -- 80
2018-04-02 18:00:00 11.3 28 Sudoeste 45 Sudoeste 0 -- -- 85
2018-04-02 17:00:00 11.1 18 Oeste 37 Sudoeste 0 -- -- 83
2018-04-02 16:00:00 12.3 30 Sudoeste 48 Sudoeste 0 -- -- 72
2018-04-02 15:00:00 13 30 Sudoeste 42 Sudoeste 0 -- -- 64
2018-04-02 14:00:00 13 27 Sudoeste 51 Sudoeste 0 -- -- 63
2018-04-02 13:00:00 13.4 40 Sudoeste 55 Sudoeste 0 -- -- 62
2018-04-02 12:00:00 12.6 35 Sudoeste 55 Sudoeste 0 -- -- 64
2018-04-02 11:00:00 10.9 25 Sudoeste 38 Sudoeste 0 -- -- 67
2018-04-02 10:00:00 10.2 20 Sudoeste 28 Sudoeste 0 -- -- 72
2018-04-02 09:00:00 9.5 14 Sudoeste 20 Sudoeste 0 -- -- 75
2018-04-02 08:00:00 9.5 10 Oeste 19 Sudoeste 0 -- -- 74
2018-04-02 07:00:00 9.5 3 Sur 22 Sudoeste 0 -- -- 74
2018-04-02 06:00:00 10.3 13 Sudoeste 23 Sudoeste 0 -- -- 71
2018-04-02 05:00:00 9.4 4 Sudoeste 10 Sudoeste 0 -- -- 77
2018-04-02 04:00:00 10.5 5 Sudoeste 15 Sudoeste 0 -- -- 73
2018-04-02 03:00:00 11.2 10 Sudoeste 18 Sudoeste 0 -- -- 69
2018-04-02 02:00:00 11.1 12 Sudoeste 17 Oeste 0 -- -- 70
2018-04-02 01:00:00 11.6 10 Sudoeste 21 Oeste 0 -- -- 69
2018-04-02 00:00:00 12.1 13 Sudoeste 21 Sudoeste 0 -- -- 67
2018-04-01 23:00:00 12.5 13 Sudoeste 19 Sudoeste 0 -- -- 63
2018-04-01 22:00:00 12.9 12 Sudoeste 18 Sudoeste 0 -- -- 61
2018-04-01 21:00:00 13.8 14 Sudoeste 20 Sudoeste 0 -- -- 60
2018-04-01 20:00:00 15.3 9 Sudoeste 16 Sudoeste 0 -- -- 59
2018-04-01 19:00:00 15.8 17 Sudoeste 30 Sur 0 -- -- 54
2018-04-01 18:00:00 16.7 15 Sur 31 Sur 0 -- -- 51
2018-04-01 17:00:00 16 16 Sur 28 Sur 0 -- -- 52
2018-04-01 16:00:00 15.4 17 Sur 31 Sur 0 -- -- 56
2018-04-01 15:00:00 14 14 Sudeste 22 Sur 0 -- -- 54
2018-04-01 14:00:00 13.1 9 Sudeste 22 Sudeste 0 -- -- 56
2018-04-01 13:00:00 11.4 10 Sudoeste 15 Sudoeste 0 -- -- 61
2018-04-01 12:00:00 8.8 5 Este 9 Este 0 -- -- 75
2018-04-01 11:00:00 7.1 0 Calma 3 Norte 0 -- -- 81
2018-04-01 10:00:00 6.2 0 Calma 4 Norte 0 -- -- 83
2018-04-01 09:00:00 4.1 0 Calma 5 Noroeste 0 -- -- 89
2018-04-01 08:00:00 2.8 3 Noroeste 6 Sudoeste 0 -- -- 91
2018-04-01 07:00:00 4 5 Sudoeste 8 Sudoeste 0 -- -- 85
2018-04-01 06:00:00 5.3 2 Sudoeste 7 Oeste 0 -- -- 81
2018-04-01 05:00:00 5.9 3 Sur 6 Sudoeste 0 -- -- 79
2018-04-01 04:00:00 6.2 0 Calma 12 Noroeste 0 -- -- 74
2018-04-01 03:00:00 6.6 8 Oeste 18 Oeste 0 -- -- 73
2018-04-01 02:00:00 6.8 13 Oeste 21 Oeste 0 -- -- 73
2018-04-01 01:00:00 6.5 6 Noroeste 15 Noroeste 0 -- -- 75
2018-04-01 00:00:00 6 3 Noroeste 13 Oeste 0 -- -- 75
2018-03-31 23:00:00 6 9 Sudoeste 17 Oeste 0 -- -- 74
2018-03-31 22:00:00 6.9 13 Oeste 20 Sudoeste 0 -- -- 65
2018-03-31 21:00:00 8.3 15 Oeste 27 Oeste 0 -- -- 58
2018-03-31 20:00:00 10.3 18 Oeste 33 Oeste 0 -- -- 51
2018-03-31 19:00:00 10.1 24 Oeste 39 Oeste 0 -- -- 49
2018-03-31 18:00:00 10.6 25 Oeste 40 Oeste 0 -- -- 46
2018-03-31 17:00:00 11.1 25 Noroeste 43 Oeste 0 -- -- 49
2018-03-31 16:00:00 10.2 33 Oeste 46 Oeste 0 -- -- 50
2018-03-31 15:00:00 10.2 31 Oeste 45 Oeste 0 -- -- 55
2018-03-31 14:00:00 9.8 28 Oeste 43 Oeste 0 -- -- 51
2018-03-31 13:00:00 8.8 23 Oeste 32 Oeste 0 -- -- 62
2018-03-31 12:00:00 7.4 19 Oeste 29 Oeste 0 -- -- 66
2018-03-31 11:00:00 6.4 17 Oeste 27 Oeste 0 -- -- 73
2018-03-31 10:00:00 4.5 22 Oeste 40 Oeste 0 -- -- 81
2018-03-31 09:00:00 2.8 26 Oeste 43 Oeste 0 -- -- 87
2018-03-31 08:00:00 2.1 26 Oeste 45 Oeste 0 -- -- 89
2018-03-31 07:00:00 2.4 29 Oeste 51 Oeste 0 -- -- 88
2018-03-31 06:00:00 2.4 37 Oeste 55 Oeste 0 -- -- 87
2018-03-31 05:00:00 2.3 37 Oeste 53 Oeste 0 -- -- 88
2018-03-31 04:00:00 2.4 42 Oeste 59 Oeste 0 -- -- 88
2018-03-31 03:00:00 2.3 43 Oeste 64 Oeste 0 -- -- 89
2018-03-31 02:00:00 2.1 44 Oeste 62 Oeste 0 -- -- 89
2018-03-31 01:00:00 2.1 44 Oeste 67 Oeste 0 -- -- 89
2018-03-31 00:00:00 2 32 Sudoeste 53 Oeste 0 -- -- 89
2018-03-30 23:00:00 2 35 Oeste 54 Oeste 0 -- -- 85
2018-03-30 22:00:00 1.9 32 Oeste 54 Sudoeste 0.2 -- -- 89
2018-03-30 21:00:00 2.1 36 Sudoeste 52 Sudoeste 0.8 -- -- 92
2018-03-30 20:00:00 3 35 Sudoeste 55 Sudoeste 0.8 -- -- 90
2018-03-30 19:00:00 3 27 Sudoeste 40 Sudoeste 0.6 -- -- 93
2018-03-30 18:00:00 2.9 26 Sudoeste 45 Sudoeste 1.4 -- -- 90
2018-03-30 17:00:00 3.4 27 Sudoeste 48 Sudoeste 0.8 -- -- 91
2018-03-30 16:00:00 4.8 32 Oeste 59 Oeste 0.2 -- -- 85
2018-03-30 15:00:00 7.7 41 Sudoeste 58 Sudoeste 0 -- -- 61
2018-03-30 14:00:00 7.8 37 Sudoeste 54 Oeste 0 -- -- 63
2018-03-30 13:00:00 5.4 31 Oeste 54 Sudoeste 0 -- -- 71
2018-03-30 12:00:00 5.1 33 Sudoeste 56 Sudoeste 0 -- -- 70
2018-03-30 11:00:00 4.1 35 Sudoeste 52 Sudoeste 0 -- -- 75
2018-03-30 10:00:00 2.5 21 Sudoeste 31 Oeste 0 -- -- 84
2018-03-30 09:00:00 1.4 10 Oeste 24 Oeste 0 -- -- 87
2018-03-30 08:00:00 0.7 11 Oeste 27 Oeste 0 -- -- 90
2018-03-30 07:00:00 1.1 23 Oeste 35 Oeste 0 -- -- 86
2018-03-30 06:00:00 1.9 22 Oeste 32 Sudoeste 0 -- -- 88
2018-03-30 05:00:00 1.9 24 Oeste 41 Sudoeste 0 -- -- 87
2018-03-30 04:00:00 2.3 31 Oeste 45 Oeste 0 -- -- 87
2018-03-30 03:00:00 3.5 26 Oeste 41 Sudoeste 0 -- -- 87
2018-03-30 02:00:00 3.8 25 Oeste 45 Sudoeste 1.6 -- -- 89
2018-03-30 01:00:00 3 24 Sudoeste 40 Oeste 1.6 -- -- 92
2018-03-30 00:00:00 2.9 25 Oeste 51 Sudoeste 3.8 -- -- 90
2018-03-29 23:00:00 5.8 33 Sudoeste 46 Sudoeste 0.8 -- -- 87
2018-03-29 22:00:00 5.1 26 Sudoeste 49 Sudoeste 0.8 -- -- 87
2018-03-29 21:00:00 5.3 28 Sudoeste 46 Sudoeste 2 -- -- 88
2018-03-29 20:00:00 7.1 31 Sudoeste 48 Sudoeste 0 -- -- 78
2018-03-29 19:00:00 8.5 26 Sudoeste 43 Oeste 0 -- -- 65
2018-03-29 18:00:00 8.9 33 Oeste 49 Oeste 0 -- -- 59
2018-03-29 17:00:00 10 26 Sudoeste 44 Sudoeste 0 -- -- 53
2018-03-29 16:00:00 10.5 29 Sudoeste 49 Sudoeste 0 -- -- 54
2018-03-29 15:00:00 10.2 28 Sudoeste 41 Sudoeste 0 -- -- 54
2018-03-29 14:00:00 9.6 27 Sudoeste 43 Oeste 0 -- -- 53
2018-03-29 13:00:00 7.7 26 Oeste 43 Oeste 0 -- -- 60
2018-03-29 12:00:00 7.2 30 Oeste 45 Oeste 0 -- -- 61
2018-03-29 11:00:00 6 27 Oeste 43 Sudoeste 0 -- -- 66
2018-03-29 10:00:00 4.1 23 Oeste 32 Oeste 0 -- -- 75
2018-03-29 09:00:00 2.3 19 Oeste 24 Oeste 0 -- -- 82
2018-03-29 08:00:00 1.8 9 Oeste 35 Oeste 0 -- -- 84
2018-03-29 07:00:00 2 12 Oeste 18 Oeste 0 -- -- 88
2018-03-29 06:00:00 3 11 Oeste 15 Oeste 0 -- -- 90
2018-03-29 05:00:00 3.1 7 Oeste 13 Oeste 0 -- -- 91
2018-03-29 04:00:00 4.4 9 Sudoeste 19 Oeste 0 -- -- 90
2018-03-29 03:00:00 5.1 10 Oeste 23 Oeste 0 -- -- 89
2018-03-29 02:00:00 6.1 13 Oeste 28 Oeste 0 -- -- 87
2018-03-29 01:00:00 7.5 12 Sudoeste 23 Sudoeste 0 -- -- 86
2018-03-29 00:00:00 8.4 16 Sudoeste 29 Sudoeste 0 -- -- 86
2018-03-28 23:00:00 8.4 20 Oeste 30 Oeste 0 -- -- 87
2018-03-28 22:00:00 8.8 23 Oeste 36 Oeste 0 -- -- 82
2018-03-28 21:00:00 9.5 23 Oeste 35 Oeste 0 -- -- 78
2018-03-28 20:00:00 11.1 22 Oeste 35 Oeste 0 -- -- 72
2018-03-28 19:00:00 12.1 27 Oeste 39 Oeste 0 -- -- 68
2018-03-28 18:00:00 12.7 27 Oeste 41 Oeste 0 -- -- 66
2018-03-28 17:00:00 14.2 30 Oeste 49 Oeste 0 -- -- 59
2018-03-28 16:00:00 14 40 Oeste 55 Oeste 0 -- -- 57
2018-03-28 15:00:00 13.5 40 Oeste 52 Oeste 0 -- -- 59
2018-03-28 14:00:00 12.7 32 Oeste 51 Oeste 0 -- -- 61
2018-03-28 13:00:00 12.3 34 Oeste 48 Oeste 0 -- -- 63
2018-03-28 12:00:00 11 36 Oeste 45 Oeste 0 -- -- 65
2018-03-28 11:00:00 9.4 22 Oeste 41 Oeste 0 -- -- 67
2018-03-28 10:00:00 8.5 8 Norte 17 Oeste 0 -- -- 69
2018-03-28 09:00:00 5.1 9 Sudeste 12 Sudeste 0 -- -- 81
2018-03-28 08:00:00 3.7 3 Sur 6 Este 0 -- -- 78
2018-03-28 07:00:00 5 2 Noroeste 9 Noroeste 0 -- -- 72
2018-03-28 06:00:00 5.1 4 Este 9 Sur 0 -- -- 70
2018-03-28 05:00:00 6.2 9 Sudoeste 30 Sudoeste 0 -- -- 66
2018-03-28 04:00:00 7.9 25 Sudoeste 31 Sudoeste 0 -- -- 59
2018-03-28 03:00:00 8.2 13 Noroeste 32 Oeste 0 -- -- 63
2018-03-28 02:00:00 9.3 18 Oeste 24 Sudoeste 0 -- -- 60
2018-03-28 01:00:00 10 4 Oeste 15 Oeste 0 -- -- 55
2018-03-28 00:00:00 10.3 13 Oeste 19 Oeste 0 -- -- 56
2018-03-27 23:00:00 11 15 Noroeste 20 Noroeste 0 -- -- 55
2018-03-27 22:00:00 10.9 16 Oeste 18 Oeste 0 -- -- 59
2018-03-27 21:00:00 13 14 Oeste 20 Noroeste 0 -- -- 50
2018-03-27 20:00:00 18.3 15 Noroeste 32 Norte 0 -- -- 33
2018-03-27 19:00:00 19.8 26 Norte 38 Norte 0 -- -- 30
2018-03-27 18:00:00 20.9 24 Norte 34 Norte 0 -- -- 30
2018-03-27 17:00:00 20.1 19 Norte 34 Sudeste 0 -- -- 36
2018-03-27 16:00:00 19.1 16 Sudoeste 27 Sur 0 -- -- 50
2018-03-27 15:00:00 17.9 14 Sur 21 Sur 0 -- -- 50
2018-03-27 14:00:00 16.7 7 Sudoeste 15 Sur 0 -- -- 52
2018-03-27 13:00:00 14.7 2 Sur 14 Noroeste 0 -- -- 52
2018-03-27 12:00:00 12.6 4 Sudoeste 7 Oeste 0 -- -- 55
2018-03-27 11:00:00 10.1 5 Noroeste 12 Oeste 0 -- -- 66
2018-03-27 10:00:00 7.8 7 Noroeste 12 Noroeste 0 -- -- 80
2018-03-27 09:00:00 6.8 10 Noroeste 13 Oeste 0 -- -- 83
2018-03-27 08:00:00 7.3 3 Noroeste 22 Noroeste 0 -- -- 78
2018-03-27 07:00:00 7.6 15 Noroeste 27 Noroeste 0 -- -- 77
2018-03-27 06:00:00 7.4 17 Noroeste 27 Oeste 0 -- -- 77
2018-03-27 05:00:00 7.4 19 Oeste 24 Oeste 0 -- -- 77
2018-03-27 04:00:00 6.4 5 Oeste 24 Oeste 0 -- -- 82
2018-03-27 03:00:00 8.2 16 Noroeste 24 Noroeste 0 -- -- 76
2018-03-27 02:00:00 7.6 12 Noroeste 22 Oeste 0 -- -- 80
2018-03-27 01:00:00 6.9 9 Noroeste 13 Noroeste 0 -- -- 84
2018-03-27 00:00:00 7.9 9 Noroeste 13 Noroeste 0 -- -- 81
2018-03-26 23:00:00 9 0 Calma 15 Oeste 0 -- -- 76
2018-03-26 22:00:00 10.8 0 Calma 5 Norte 0 -- -- 65
2018-03-26 21:00:00 11.2 5 Norte 10 Norte 0 -- -- 62
2018-03-26 20:00:00 12.5 4 Norte 23 Norte 0 -- -- 52
2018-03-26 19:00:00 13.9 14 Norte 24 Norte 0 -- -- 43
2018-03-26 18:00:00 15.1 8 Noroeste 19 Norte 0 -- -- 35
2018-03-26 17:00:00 14.7 13 Oeste 23 Oeste 0 -- -- 36
2018-03-26 16:00:00 13.8 10 Norte 21 Noroeste 0 -- -- 35
2018-03-26 15:00:00 12.3 5 Noroeste 19 Noroeste 0 -- -- 39
2018-03-26 14:00:00 11.1 5 Sur 13 Nordeste 0 -- -- 48
2018-03-26 13:00:00 9.8 4 Norte 12 Noroeste 0 -- -- 44
2018-03-26 12:00:00 8.8 9 Norte 22 Norte 0 -- -- 48
2018-03-26 11:00:00 6.8 10 Norte 18 Norte 0 -- -- 55
2018-03-26 10:00:00 4.2 10 Norte 17 Norte 0 -- -- 61
2018-03-26 09:00:00 0.9 7 Noroeste 9 Noroeste 0 -- -- 74
2018-03-26 08:00:00 0.4 8 Oeste 18 Noroeste 0 -- -- 76
2018-03-26 07:00:00 0.8 10 Noroeste 18 Noroeste 0 -- -- 73
2018-03-26 06:00:00 1 6 Noroeste 12 Noroeste 0 -- -- 74
2018-03-26 05:00:00 1.6 6 Noroeste 17 Noroeste 0 -- -- 78
2018-03-26 04:00:00 1.9 13 Noroeste 17 Noroeste 0 -- -- 73
2018-03-26 03:00:00 2.6 9 Noroeste 22 Noroeste 0 -- -- 68
2018-03-26 02:00:00 1.9 15 Noroeste 17 Noroeste 0 -- -- 72
2018-03-26 01:00:00 2.1 8 Oeste 13 Oeste 0 -- -- 77
2018-03-26 00:00:00 2.8 10 Noroeste 13 Oeste 0 -- -- 72
2018-03-25 23:00:00 4.1 6 Noroeste 18 Noroeste 0 -- -- 66
2018-03-25 22:00:00 5.7 9 Noroeste 18 Norte 0 -- -- 57
2018-03-25 21:00:00 7.4 9 Norte 23 Norte 0 -- -- 51
2018-03-25 20:00:00 10 16 Norte 28 Norte 0 -- -- 41
2018-03-25 19:00:00 10.4 21 Norte 30 Norte 0 -- -- 42
2018-03-25 18:00:00 10.5 15 Norte 31 Norte 0 -- -- 41
2018-03-25 17:00:00 11.6 22 Norte 35 Noroeste 0 -- -- 39
2018-03-25 16:00:00 11.2 26 Norte 36 Norte 0 -- -- 39
2018-03-25 15:00:00 11.6 21 Noroeste 30 Noroeste 0 -- -- 40
2018-03-25 14:00:00 11.4 11 Nordeste 31 Norte 0 -- -- 41
2018-03-25 13:00:00 10.1 18 Norte 27 Norte 0 -- -- 42
2018-03-25 12:00:00 8.3 11 Noroeste 24 Noroeste 0 -- -- 50
2018-03-25 11:00:00 7.1 7 Norte 21 Oeste 0 -- -- 57
2018-03-25 10:00:00 5 9 Oeste 13 Noroeste 0 -- -- 69
2018-03-25 09:00:00 1.3 11 Noroeste 15 Oeste 0 -- -- 90
2018-03-25 08:00:00 0.6 9 Oeste 15 Noroeste 0 -- -- 91
2018-03-25 07:00:00 2 13 Oeste 18 Oeste 0 -- -- 87
2018-03-25 06:00:00 2.7 14 Noroeste 27 Oeste 0 -- -- 86
2018-03-25 05:00:00 3.1 21 Oeste 32 Oeste 0 -- -- 84
2018-03-25 03:00:00 3.7 16 Oeste 28 Oeste 0 -- -- 80
2018-03-25 01:00:00 3.9 19 Oeste 39 Oeste 0 -- -- 78
2018-03-25 00:00:00 4.1 28 Sudoeste 39 Oeste 0 -- -- 75
2018-03-24 23:00:00 4.6 30 Oeste 47 Oeste 0 -- -- 73
2018-03-24 22:00:00 4.8 30 Oeste 47 Oeste 0 -- -- 70
2018-03-24 21:00:00 5.3 30 Oeste 52 Oeste 0 -- -- 72
2018-03-24 20:00:00 6 34 Oeste 50 Oeste 0 -- -- 67
2018-03-24 19:00:00 6.8 35 Oeste 62 Oeste 0 -- -- 64
2018-03-24 18:00:00 8.3 40 Oeste 53 Oeste 0 -- -- 58
2018-03-24 17:00:00 9.2 41 Noroeste 68 Noroeste 0 -- -- 56
2018-03-24 16:00:00 10.5 46 Noroeste 75 Noroeste 0 -- -- 53
2018-03-24 15:00:00 10.1 52 Oeste 78 Oeste 0 -- -- 55
2018-03-24 14:00:00 9.6 57 Noroeste 78 Oeste 0 -- -- 59
2018-03-24 13:00:00 8.2 58 Oeste 78 Oeste 0 -- -- 65
2018-03-24 12:00:00 7.1 57 Oeste 77 Oeste 0 -- -- 69
2018-03-24 11:00:00 6.1 55 Oeste 78 Oeste 0 -- -- 72
2018-03-24 10:00:00 4.8 45 Oeste 66 Oeste 0 -- -- 79
2018-03-24 09:00:00 3.6 39 Oeste 59 Oeste 0 -- -- 81
2018-03-24 08:00:00 2.3 31 Oeste 46 Oeste 0 -- -- 85
2018-03-24 07:00:00 2 27 Oeste 45 Oeste 0 -- -- 85
2018-03-24 06:00:00 1.5 31 Oeste 44 Oeste 0 -- -- 86
2018-03-24 05:00:00 1.4 28 Oeste 43 Oeste 0 -- -- 85
2018-03-24 04:00:00 1.4 22 Oeste 40 Oeste 0 -- -- 87
2018-03-24 03:00:00 1.8 27 Oeste 43 Oeste 0 -- -- 84
2018-03-24 02:00:00 2 25 Oeste 39 Oeste 0 -- -- 86
2018-03-24 01:00:00 2.7 25 Oeste 44 Oeste 0 -- -- 79
2018-03-24 00:00:00 3 24 Oeste 42 Oeste 0 -- -- 81
2018-03-23 23:00:00 3.9 28 Oeste 43 Oeste 0.2 -- -- 82
2018-03-23 22:00:00 3.2 34 Noroeste 63 Noroeste 2.6 -- -- 89
2018-03-23 21:00:00 7.8 33 Sudoeste 54 Sudoeste 0 -- -- 86
2018-03-23 20:00:00 8.5 35 Sudoeste 55 Sudoeste 0 -- -- 80
2018-03-23 19:00:00 9.8 30 Sudoeste 55 Oeste 0 -- -- 70
2018-03-23 18:00:00 10.7 35 Oeste 58 Oeste 0 -- -- 66
2018-03-23 17:00:00 10.5 37 Oeste 51 Oeste 0 -- -- 78
2018-03-23 16:00:00 10.8 33 Oeste 48 Oeste 0 -- -- 78
2018-03-23 15:00:00 9.7 23 Oeste 41 Oeste 0 -- -- 86
2018-03-23 14:00:00 8.5 19 Oeste 32 Oeste 0 -- -- 92
2018-03-23 13:00:00 7.7 26 Sudoeste 37 Sudoeste 0 -- -- 88
2018-03-23 12:00:00 7.8 25 Sudoeste 38 Sudoeste 0 -- -- 85
2018-03-23 11:00:00 7.4 33 Oeste 51 Sudoeste 0 -- -- 84
2018-03-23 10:00:00 6.9 34 Sudoeste 48 Sudoeste 0 -- -- 85
2018-03-23 09:00:00 5.8 36 Sudoeste 49 Sudoeste 0 -- -- 83
2018-03-23 08:00:00 5.3 36 Sudoeste 49 Sudoeste 0 -- -- 82
2018-03-23 07:00:00 5.5 26 Oeste 51 Oeste 0 -- -- 82
2018-03-23 06:00:00 5.6 13 Noroeste 34 Oeste 0 -- -- 77
2018-03-23 05:00:00 5.7 15 Oeste 39 Oeste 0 -- -- 72
2018-03-23 04:00:00 5.6 16 Noroeste 23 Oeste 0 -- -- 73
2018-03-23 03:00:00 6.3 19 Oeste 32 Sudoeste 0 -- -- 72
2018-03-23 02:00:00 6.9 20 Sudoeste 33 Sudoeste 0 -- -- 66
2018-03-23 01:00:00 7.1 19 Oeste 28 Oeste 0 -- -- 63
2018-03-23 00:00:00 5.8 8 Noroeste 17 Noroeste 0 -- -- 70
2018-03-22 23:00:00 6.6 11 Oeste 27 Oeste 0 -- -- 68
2018-03-22 22:00:00 7.1 15 Oeste 31 Sudoeste 0 -- -- 65
2018-03-22 21:00:00 7.4 25 Sudoeste 31 Oeste 0 -- -- 58
2018-03-22 20:00:00 8.2 20 Sudoeste 27 Sudoeste 0 -- -- 56
2018-03-22 19:00:00 10.4 15 Sudoeste 27 Oeste 0 -- -- 50
2018-03-22 18:00:00 11.9 20 Sudoeste 33 Sudoeste 0 -- -- 45
2018-03-22 17:00:00 12 21 Sudoeste 34 Sudoeste 0 -- -- 42
2018-03-22 16:00:00 11.1 18 Sur 28 Sur 0 -- -- 44
2018-03-22 15:00:00 9.4 15 Sur 24 Sudoeste 0 -- -- 50
2018-03-22 14:00:00 8.3 9 Sur 21 Sudoeste 0 -- -- 52
2018-03-22 13:00:00 7 9 Sur 26 Este 0 -- -- 53
2018-03-22 12:00:00 5.5 9 Sudeste 19 Sudeste 0 -- -- 56
2018-03-22 11:00:00 4.6 5 Este 17 Este 0 -- -- 62
2018-03-22 10:00:00 3.5 0 Calma 5 Sur 0 -- -- 64
2018-03-22 09:00:00 0.6 3 Este 6 Sudeste 0 -- -- 87
2018-03-22 08:00:00 -2.5 2 Noroeste 9 Oeste 0 -- -- 92
2018-03-22 07:00:00 -3.1 6 Oeste 8 Oeste 0 -- -- 92
2018-03-22 06:00:00 -3 6 Noroeste 7 Oeste 0 -- -- 92
2018-03-22 05:00:00 -2.7 5 Noroeste 8 Oeste 0 -- -- 92
2018-03-22 04:00:00 -2.4 0 Calma 0 Calma 0 -- -- 91
2018-03-22 03:00:00 -2.1 0 Calma 0 Calma 0 -- -- 91
2018-03-22 02:00:00 -1.5 0 Calma 0 Calma 0 -- -- 90
2018-03-22 01:00:00 -0.7 0 Calma 0 Calma 0 -- -- 86
2018-03-22 00:00:00 0.7 0 Calma 9 Este 0 -- -- 79